sensor_id;sensor_type;location;lat;lon;timestamp;P1;durP1;ratioP1;P2;durP2;ratioP2
20073;SDS011;10197;54.282;10.078;2022-08-27T00:02:16;28.63;;;20.08;;
20073;SDS011;10197;54.282;10.078;2022-08-27T00:04:43;34.38;;;21.17;;
20073;SDS011;10197;54.282;10.078;2022-08-27T00:07:10;35.38;;;23.45;;
20073;SDS011;10197;54.282;10.078;2022-08-27T00:09:38;40.72;;;23.48;;
20073;SDS011;10197;54.282;10.078;2022-08-27T00:12:05;36.85;;;23.35;;
20073;SDS011;10197;54.282;10.078;2022-08-27T00:14:33;41.05;;;24.00;;
20073;SDS011;10197;54.282;10.078;2022-08-27T00:17:02;44.55;;;25.95;;
20073;SDS011;10197;54.282;10.078;2022-08-27T00:19:31;38.15;;;23.30;;
20073;SDS011;10197;54.282;10.078;2022-08-27T00:22:00;41.90;;;23.85;;
20073;SDS011;10197;54.282;10.078;2022-08-27T00:24:27;43.25;;;22.27;;
20073;SDS011;10197;54.282;10.078;2022-08-27T00:26:54;41.10;;;23.20;;
20073;SDS011;10197;54.282;10.078;2022-08-27T00:29:23;45.55;;;26.42;;
20073;SDS011;10197;54.282;10.078;2022-08-27T00:31:51;43.17;;;21.88;;
20073;SDS011;10197;54.282;10.078;2022-08-27T00:34:18;42.17;;;25.50;;
20073;SDS011;10197;54.282;10.078;2022-08-27T00:36:46;39.08;;;22.98;;
20073;SDS011;10197;54.282;10.078;2022-08-27T00:39:13;42.08;;;23.95;;
20073;SDS011;10197;54.282;10.078;2022-08-27T00:41:40;43.20;;;22.98;;
20073;SDS011;10197;54.282;10.078;2022-08-27T00:44:08;46.95;;;26.45;;
20073;SDS011;10197;54.282;10.078;2022-08-27T00:46:37;47.75;;;25.52;;
20073;SDS011;10197;54.282;10.078;2022-08-27T00:49:07;51.10;;;24.33;;
20073;SDS011;10197;54.282;10.078;2022-08-27T00:51:35;44.85;;;23.17;;
20073;SDS011;10197;54.282;10.078;2022-08-27T00:54:05;50.85;;;26.02;;
20073;SDS011;10197;54.282;10.078;2022-08-27T00:56:34;46.03;;;24.10;;
20073;SDS011;10197;54.282;10.078;2022-08-27T00:59:09;48.10;;;22.38;;
20073;SDS011;10197;54.282;10.078;2022-08-27T01:01:39;43.15;;;22.33;;
20073;SDS011;10197;54.282;10.078;2022-08-27T01:04:27;37.40;;;19.00;;
20073;SDS011;10197;54.282;10.078;2022-08-27T01:06:55;46.83;;;24.27;;
20073;SDS011;10197;54.282;10.078;2022-08-27T01:09:23;43.70;;;25.42;;
20073;SDS011;10197;54.282;10.078;2022-08-27T01:11:51;45.38;;;25.27;;
20073;SDS011;10197;54.282;10.078;2022-08-27T01:14:19;42.83;;;23.67;;
20073;SDS011;10197;54.282;10.078;2022-08-27T01:16:47;36.90;;;21.13;;
20073;SDS011;10197;54.282;10.078;2022-08-27T01:19:23;41.85;;;26.27;;
20073;SDS011;10197;54.282;10.078;2022-08-27T01:21:55;42.20;;;24.73;;
20073;SDS011;10197;54.282;10.078;2022-08-27T01:24:33;41.47;;;23.17;;
20073;SDS011;10197;54.282;10.078;2022-08-27T01:27:02;39.85;;;23.20;;
20073;SDS011;10197;54.282;10.078;2022-08-27T01:29:31;37.70;;;24.55;;
20073;SDS011;10197;54.282;10.078;2022-08-27T01:32:03;40.75;;;25.55;;
20073;SDS011;10197;54.282;10.078;2022-08-27T01:34:32;43.67;;;28.10;;
20073;SDS011;10197;54.282;10.078;2022-08-27T01:36:58;42.58;;;26.40;;
20073;SDS011;10197;54.282;10.078;2022-08-27T01:39:26;45.67;;;25.67;;
20073;SDS011;10197;54.282;10.078;2022-08-27T01:41:54;47.20;;;25.73;;
20073;SDS011;10197;54.282;10.078;2022-08-27T01:44:27;51.08;;;27.23;;
20073;SDS011;10197;54.282;10.078;2022-08-27T01:46:54;56.50;;;27.45;;
20073;SDS011;10197;54.282;10.078;2022-08-27T01:49:21;47.45;;;27.40;;
20073;SDS011;10197;54.282;10.078;2022-08-27T01:51:48;42.63;;;24.92;;
20073;SDS011;10197;54.282;10.078;2022-08-27T01:54:14;47.78;;;29.35;;
20073;SDS011;10197;54.282;10.078;2022-08-27T01:56:41;50.47;;;31.83;;
20073;SDS011;10197;54.282;10.078;2022-08-27T01:59:09;49.05;;;30.05;;
20073;SDS011;10197;54.282;10.078;2022-08-27T02:01:36;42.47;;;27.45;;
20073;SDS011;10197;54.282;10.078;2022-08-27T02:04:03;50.15;;;27.40;;
20073;SDS011;10197;54.282;10.078;2022-08-27T02:06:30;42.13;;;23.92;;
20073;SDS011;10197;54.282;10.078;2022-08-27T02:08:57;42.92;;;25.52;;
20073;SDS011;10197;54.282;10.078;2022-08-27T02:11:24;40.25;;;23.98;;
20073;SDS011;10197;54.282;10.078;2022-08-27T02:13:51;54.28;;;28.05;;
20073;SDS011;10197;54.282;10.078;2022-08-27T02:16:19;47.13;;;27.65;;
20073;SDS011;10197;54.282;10.078;2022-08-27T02:18:46;55.35;;;28.27;;
20073;SDS011;10197;54.282;10.078;2022-08-27T02:21:13;51.63;;;25.63;;
20073;SDS011;10197;54.282;10.078;2022-08-27T02:23:42;45.20;;;25.02;;
20073;SDS011;10197;54.282;10.078;2022-08-27T02:26:09;48.70;;;28.65;;
20073;SDS011;10197;54.282;10.078;2022-08-27T02:28:36;44.10;;;24.30;;
20073;SDS011;10197;54.282;10.078;2022-08-27T02:31:03;46.63;;;26.38;;
20073;SDS011;10197;54.282;10.078;2022-08-27T02:33:33;49.30;;;26.15;;
20073;SDS011;10197;54.282;10.078;2022-08-27T02:36:00;40.88;;;24.33;;
20073;SDS011;10197;54.282;10.078;2022-08-27T02:38:28;49.83;;;27.58;;
20073;SDS011;10197;54.282;10.078;2022-08-27T02:40:55;38.33;;;23.17;;
20073;SDS011;10197;54.282;10.078;2022-08-27T02:43:22;47.22;;;25.73;;
20073;SDS011;10197;54.282;10.078;2022-08-27T02:45:49;41.03;;;21.48;;
20073;SDS011;10197;54.282;10.078;2022-08-27T02:48:16;36.55;;;22.70;;
20073;SDS011;10197;54.282;10.078;2022-08-27T02:50:44;36.40;;;20.15;;
20073;SDS011;10197;54.282;10.078;2022-08-27T02:53:12;37.80;;;21.55;;
20073;SDS011;10197;54.282;10.078;2022-08-27T02:55:39;41.03;;;23.30;;
20073;SDS011;10197;54.282;10.078;2022-08-27T02:58:07;45.38;;;25.48;;
20073;SDS011;10197;54.282;10.078;2022-08-27T03:00:33;46.45;;;23.58;;
20073;SDS011;10197;54.282;10.078;2022-08-27T03:03:00;44.45;;;24.33;;
20073;SDS011;10197;54.282;10.078;2022-08-27T03:05:27;48.70;;;24.05;;
20073;SDS011;10197;54.282;10.078;2022-08-27T03:07:55;41.85;;;24.13;;
20073;SDS011;10197;54.282;10.078;2022-08-27T03:10:23;46.58;;;25.02;;
20073;SDS011;10197;54.282;10.078;2022-08-27T03:12:50;40.13;;;23.40;;
20073;SDS011;10197;54.282;10.078;2022-08-27T03:15:17;34.47;;;19.10;;
20073;SDS011;10197;54.282;10.078;2022-08-27T03:17:44;42.33;;;23.23;;
20073;SDS011;10197;54.282;10.078;2022-08-27T03:20:29;44.08;;;22.77;;
20073;SDS011;10197;54.282;10.078;2022-08-27T03:22:59;34.00;;;19.67;;
20073;SDS011;10197;54.282;10.078;2022-08-27T03:25:26;39.47;;;21.17;;
20073;SDS011;10197;54.282;10.078;2022-08-27T03:27:53;48.65;;;25.17;;
20073;SDS011;10197;54.282;10.078;2022-08-27T03:30:20;43.25;;;23.23;;
20073;SDS011;10197;54.282;10.078;2022-08-27T03:32:48;44.75;;;22.83;;
20073;SDS011;10197;54.282;10.078;2022-08-27T03:35:16;44.80;;;22.52;;
20073;SDS011;10197;54.282;10.078;2022-08-27T03:37:43;35.15;;;20.42;;
20073;SDS011;10197;54.282;10.078;2022-08-27T03:40:13;40.50;;;21.67;;
20073;SDS011;10197;54.282;10.078;2022-08-27T03:42:40;47.97;;;22.95;;
20073;SDS011;10197;54.282;10.078;2022-08-27T03:45:08;44.10;;;22.17;;
20073;SDS011;10197;54.282;10.078;2022-08-27T03:47:36;41.58;;;20.10;;
20073;SDS011;10197;54.282;10.078;2022-08-27T03:50:04;37.38;;;18.83;;
20073;SDS011;10197;54.282;10.078;2022-08-27T03:52:32;39.55;;;19.30;;
20073;SDS011;10197;54.282;10.078;2022-08-27T03:55:00;35.53;;;18.48;;
20073;SDS011;10197;54.282;10.078;2022-08-27T03:57:31;43.08;;;21.80;;
20073;SDS011;10197;54.282;10.078;2022-08-27T03:59:58;41.67;;;21.42;;
20073;SDS011;10197;54.282;10.078;2022-08-27T04:02:26;40.10;;;21.45;;
20073;SDS011;10197;54.282;10.078;2022-08-27T04:04:53;49.60;;;22.15;;
20073;SDS011;10197;54.282;10.078;2022-08-27T04:07:21;40.85;;;20.30;;
20073;SDS011;10197;54.282;10.078;2022-08-27T04:09:49;34.45;;;19.00;;
20073;SDS011;10197;54.282;10.078;2022-08-27T04:12:15;36.40;;;18.80;;
20073;SDS011;10197;54.282;10.078;2022-08-27T04:14:44;46.83;;;22.13;;
20073;SDS011;10197;54.282;10.078;2022-08-27T04:17:11;40.33;;;22.10;;
20073;SDS011;10197;54.282;10.078;2022-08-27T04:19:38;36.17;;;19.92;;
20073;SDS011;10197;54.282;10.078;2022-08-27T04:22:05;45.92;;;20.10;;
20073;SDS011;10197;54.282;10.078;2022-08-27T04:24:33;44.92;;;21.42;;
20073;SDS011;10197;54.282;10.078;2022-08-27T04:27:01;37.42;;;19.58;;
20073;SDS011;10197;54.282;10.078;2022-08-27T04:29:29;42.33;;;20.25;;
20073;SDS011;10197;54.282;10.078;2022-08-27T04:31:57;36.30;;;19.85;;
20073;SDS011;10197;54.282;10.078;2022-08-27T04:34:24;40.00;;;20.52;;
20073;SDS011;10197;54.282;10.078;2022-08-27T04:36:53;37.58;;;21.52;;
20073;SDS011;10197;54.282;10.078;2022-08-27T04:39:20;34.55;;;17.50;;
20073;SDS011;10197;54.282;10.078;2022-08-27T04:41:48;36.90;;;18.67;;
20073;SDS011;10197;54.282;10.078;2022-08-27T04:44:15;27.70;;;17.27;;
20073;SDS011;10197;54.282;10.078;2022-08-27T04:46:43;27.20;;;15.75;;
20073;SDS011;10197;54.282;10.078;2022-08-27T04:49:19;29.25;;;16.98;;
20073;SDS011;10197;54.282;10.078;2022-08-27T04:51:45;31.77;;;16.45;;
20073;SDS011;10197;54.282;10.078;2022-08-27T04:54:12;41.55;;;18.52;;
20073;SDS011;10197;54.282;10.078;2022-08-27T04:56:39;35.28;;;18.42;;
20073;SDS011;10197;54.282;10.078;2022-08-27T04:59:07;37.22;;;18.65;;
20073;SDS011;10197;54.282;10.078;2022-08-27T05:01:35;34.22;;;16.98;;
20073;SDS011;10197;54.282;10.078;2022-08-27T05:04:03;29.15;;;15.27;;
20073;SDS011;10197;54.282;10.078;2022-08-27T05:06:32;30.05;;;18.38;;
20073;SDS011;10197;54.282;10.078;2022-08-27T05:08:59;29.42;;;15.90;;
20073;SDS011;10197;54.282;10.078;2022-08-27T05:11:27;26.00;;;13.85;;
20073;SDS011;10197;54.282;10.078;2022-08-27T05:13:59;31.00;;;16.20;;
20073;SDS011;10197;54.282;10.078;2022-08-27T05:16:27;33.95;;;17.08;;
20073;SDS011;10197;54.282;10.078;2022-08-27T05:18:54;30.52;;;13.82;;
20073;SDS011;10197;54.282;10.078;2022-08-27T05:21:23;26.65;;;15.00;;
20073;SDS011;10197;54.282;10.078;2022-08-27T05:23:53;32.72;;;14.73;;
20073;SDS011;10197;54.282;10.078;2022-08-27T05:26:21;27.45;;;13.57;;
20073;SDS011;10197;54.282;10.078;2022-08-27T05:28:48;34.65;;;15.48;;
20073;SDS011;10197;54.282;10.078;2022-08-27T05:31:16;31.38;;;14.48;;
20073;SDS011;10197;54.282;10.078;2022-08-27T05:33:43;32.70;;;15.20;;
20073;SDS011;10197;54.282;10.078;2022-08-27T05:36:13;23.50;;;13.90;;
20073;SDS011;10197;54.282;10.078;2022-08-27T05:38:41;29.60;;;14.20;;
20073;SDS011;10197;54.282;10.078;2022-08-27T05:41:11;22.80;;;14.02;;
20073;SDS011;10197;54.282;10.078;2022-08-27T05:43:40;19.88;;;12.73;;
20073;SDS011;10197;54.282;10.078;2022-08-27T05:46:09;17.45;;;10.68;;
20073;SDS011;10197;54.282;10.078;2022-08-27T05:48:37;23.38;;;11.07;;
20073;SDS011;10197;54.282;10.078;2022-08-27T05:51:08;19.60;;;9.88;;
20073;SDS011;10197;54.282;10.078;2022-08-27T05:53:37;19.70;;;10.27;;
20073;SDS011;10197;54.282;10.078;2022-08-27T05:56:04;19.25;;;11.63;;
20073;SDS011;10197;54.282;10.078;2022-08-27T05:58:36;14.38;;;8.60;;
20073;SDS011;10197;54.282;10.078;2022-08-27T06:01:21;15.75;;;9.85;;
20073;SDS011;10197;54.282;10.078;2022-08-27T06:03:48;17.63;;;9.73;;
20073;SDS011;10197;54.282;10.078;2022-08-27T06:06:17;16.65;;;9.10;;
20073;SDS011;10197;54.282;10.078;2022-08-27T06:08:44;18.35;;;9.90;;
20073;SDS011;10197;54.282;10.078;2022-08-27T06:11:10;15.95;;;9.40;;
20073;SDS011;10197;54.282;10.078;2022-08-27T06:13:39;28.60;;;12.63;;
20073;SDS011;10197;54.282;10.078;2022-08-27T06:16:07;21.38;;;10.15;;
20073;SDS011;10197;54.282;10.078;2022-08-27T06:18:36;25.02;;;10.43;;
20073;SDS011;10197;54.282;10.078;2022-08-27T06:21:03;22.95;;;10.50;;
20073;SDS011;10197;54.282;10.078;2022-08-27T06:23:31;21.05;;;10.88;;
20073;SDS011;10197;54.282;10.078;2022-08-27T06:25:58;23.25;;;11.45;;
20073;SDS011;10197;54.282;10.078;2022-08-27T06:28:26;24.92;;;11.40;;
20073;SDS011;10197;54.282;10.078;2022-08-27T06:31:02;21.50;;;10.63;;
20073;SDS011;10197;54.282;10.078;2022-08-27T06:33:30;26.42;;;11.45;;
20073;SDS011;10197;54.282;10.078;2022-08-27T06:35:57;22.20;;;10.52;;
20073;SDS011;10197;54.282;10.078;2022-08-27T06:38:24;21.52;;;9.68;;
20073;SDS011;10197;54.282;10.078;2022-08-27T06:40:51;15.55;;;8.18;;
20073;SDS011;10197;54.282;10.078;2022-08-27T06:43:19;20.45;;;9.13;;
20073;SDS011;10197;54.282;10.078;2022-08-27T06:45:46;14.63;;;8.25;;
20073;SDS011;10197;54.282;10.078;2022-08-27T06:48:14;16.65;;;8.18;;
20073;SDS011;10197;54.282;10.078;2022-08-27T06:50:41;12.45;;;7.57;;
20073;SDS011;10197;54.282;10.078;2022-08-27T06:53:09;13.65;;;7.80;;
20073;SDS011;10197;54.282;10.078;2022-08-27T06:55:39;11.48;;;7.60;;
20073;SDS011;10197;54.282;10.078;2022-08-27T06:58:07;11.48;;;6.90;;
20073;SDS011;10197;54.282;10.078;2022-08-27T07:00:33;9.88;;;6.32;;
20073;SDS011;10197;54.282;10.078;2022-08-27T07:03:00;11.18;;;6.22;;
20073;SDS011;10197;54.282;10.078;2022-08-27T07:05:31;11.32;;;5.85;;
20073;SDS011;10197;54.282;10.078;2022-08-27T07:07:58;10.30;;;5.40;;
20073;SDS011;10197;54.282;10.078;2022-08-27T07:10:25;7.50;;;5.65;;
20073;SDS011;10197;54.282;10.078;2022-08-27T07:12:53;7.28;;;5.55;;
20073;SDS011;10197;54.282;10.078;2022-08-27T07:15:20;10.70;;;6.03;;
20073;SDS011;10197;54.282;10.078;2022-08-27T07:17:47;11.20;;;6.53;;
20073;SDS011;10197;54.282;10.078;2022-08-27T07:20:14;11.82;;;5.88;;
20073;SDS011;10197;54.282;10.078;2022-08-27T07:22:43;10.35;;;6.00;;
20073;SDS011;10197;54.282;10.078;2022-08-27T07:25:13;15.98;;;6.78;;
20073;SDS011;10197;54.282;10.078;2022-08-27T07:27:44;15.10;;;5.93;;
20073;SDS011;10197;54.282;10.078;2022-08-27T07:30:11;10.27;;;5.47;;
20073;SDS011;10197;54.282;10.078;2022-08-27T07:32:40;13.20;;;6.25;;
20073;SDS011;10197;54.282;10.078;2022-08-27T07:35:07;12.88;;;6.35;;
20073;SDS011;10197;54.282;10.078;2022-08-27T07:37:34;13.15;;;6.20;;
20073;SDS011;10197;54.282;10.078;2022-08-27T07:40:03;11.43;;;6.03;;
20073;SDS011;10197;54.282;10.078;2022-08-27T07:42:30;12.45;;;5.47;;
20073;SDS011;10197;54.282;10.078;2022-08-27T07:45:19;14.82;;;5.90;;
20073;SDS011;10197;54.282;10.078;2022-08-27T07:47:46;12.35;;;5.82;;
20073;SDS011;10197;54.282;10.078;2022-08-27T07:50:14;13.90;;;5.45;;
20073;SDS011;10197;54.282;10.078;2022-08-27T07:52:45;11.27;;;5.13;;
20073;SDS011;10197;54.282;10.078;2022-08-27T07:55:13;11.15;;;5.20;;
20073;SDS011;10197;54.282;10.078;2022-08-27T07:57:40;12.05;;;4.90;;
20073;SDS011;10197;54.282;10.078;2022-08-27T08:00:09;12.07;;;4.80;;
20073;SDS011;10197;54.282;10.078;2022-08-27T08:02:39;15.30;;;5.95;;
20073;SDS011;10197;54.282;10.078;2022-08-27T08:05:09;18.15;;;6.07;;
20073;SDS011;10197;54.282;10.078;2022-08-27T08:07:38;14.27;;;5.13;;
20073;SDS011;10197;54.282;10.078;2022-08-27T08:10:05;12.13;;;5.30;;
20073;SDS011;10197;54.282;10.078;2022-08-27T08:12:35;11.88;;;5.53;;
20073;SDS011;10197;54.282;10.078;2022-08-27T08:15:03;13.98;;;4.75;;
20073;SDS011;10197;54.282;10.078;2022-08-27T08:17:31;10.57;;;4.40;;
20073;SDS011;10197;54.282;10.078;2022-08-27T08:19:58;11.93;;;4.90;;
20073;SDS011;10197;54.282;10.078;2022-08-27T08:22:25;12.18;;;5.00;;
20073;SDS011;10197;54.282;10.078;2022-08-27T08:24:53;12.48;;;5.05;;
20073;SDS011;10197;54.282;10.078;2022-08-27T08:27:20;13.60;;;5.20;;
20073;SDS011;10197;54.282;10.078;2022-08-27T08:29:49;12.32;;;4.50;;
20073;SDS011;10197;54.282;10.078;2022-08-27T08:32:16;11.48;;;4.95;;
20073;SDS011;10197;54.282;10.078;2022-08-27T08:34:45;9.98;;;4.90;;
20073;SDS011;10197;54.282;10.078;2022-08-27T08:37:13;8.35;;;4.28;;
20073;SDS011;10197;54.282;10.078;2022-08-27T08:39:40;12.05;;;4.50;;
20073;SDS011;10197;54.282;10.078;2022-08-27T08:42:09;10.70;;;4.70;;
20073;SDS011;10197;54.282;10.078;2022-08-27T08:44:53;11.70;;;4.85;;
20073;SDS011;10197;54.282;10.078;2022-08-27T08:47:22;12.77;;;4.50;;
20073;SDS011;10197;54.282;10.078;2022-08-27T08:49:52;14.13;;;4.70;;
20073;SDS011;10197;54.282;10.078;2022-08-27T08:52:28;11.38;;;4.78;;
20073;SDS011;10197;54.282;10.078;2022-08-27T08:55:07;12.13;;;4.72;;
20073;SDS011;10197;54.282;10.078;2022-08-27T08:57:40;11.88;;;4.65;;
20073;SDS011;10197;54.282;10.078;2022-08-27T09:00:14;12.02;;;5.60;;
20073;SDS011;10197;54.282;10.078;2022-08-27T09:02:43;13.73;;;4.80;;
20073;SDS011;10197;54.282;10.078;2022-08-27T09:05:14;14.63;;;5.00;;
20073;SDS011;10197;54.282;10.078;2022-08-27T09:07:42;14.05;;;5.45;;
20073;SDS011;10197;54.282;10.078;2022-08-27T09:10:13;12.23;;;5.75;;
20073;SDS011;10197;54.282;10.078;2022-08-27T09:12:45;18.42;;;5.60;;
20073;SDS011;10197;54.282;10.078;2022-08-27T09:15:14;14.57;;;6.25;;
20073;SDS011;10197;54.282;10.078;2022-08-27T09:17:42;12.93;;;5.18;;
20073;SDS011;10197;54.282;10.078;2022-08-27T09:20:12;13.60;;;4.88;;
20073;SDS011;10197;54.282;10.078;2022-08-27T09:22:41;12.43;;;4.70;;
20073;SDS011;10197;54.282;10.078;2022-08-27T09:25:13;15.18;;;5.80;;
20073;SDS011;10197;54.282;10.078;2022-08-27T09:27:45;11.23;;;4.85;;
20073;SDS011;10197;54.282;10.078;2022-08-27T09:30:17;12.73;;;5.57;;
20073;SDS011;10197;54.282;10.078;2022-08-27T09:32:51;13.70;;;4.63;;
20073;SDS011;10197;54.282;10.078;2022-08-27T09:35:19;14.52;;;5.20;;
20073;SDS011;10197;54.282;10.078;2022-08-27T09:37:47;9.07;;;4.25;;
20073;SDS011;10197;54.282;10.078;2022-08-27T09:40:15;9.00;;;4.10;;
20073;SDS011;10197;54.282;10.078;2022-08-27T09:42:44;9.93;;;4.75;;
20073;SDS011;10197;54.282;10.078;2022-08-27T09:45:13;8.50;;;4.00;;
20073;SDS011;10197;54.282;10.078;2022-08-27T09:47:44;8.65;;;4.00;;
20073;SDS011;10197;54.282;10.078;2022-08-27T09:50:14;13.77;;;4.32;;
20073;SDS011;10197;54.282;10.078;2022-08-27T09:52:46;8.73;;;4.13;;
20073;SDS011;10197;54.282;10.078;2022-08-27T09:55:25;12.00;;;4.97;;
20073;SDS011;10197;54.282;10.078;2022-08-27T09:57:53;15.05;;;5.20;;
20073;SDS011;10197;54.282;10.078;2022-08-27T10:00:26;13.85;;;5.13;;
20073;SDS011;10197;54.282;10.078;2022-08-27T10:02:58;11.20;;;4.88;;
20073;SDS011;10197;54.282;10.078;2022-08-27T10:05:28;12.52;;;5.30;;
20073;SDS011;10197;54.282;10.078;2022-08-27T10:07:58;10.75;;;5.00;;
20073;SDS011;10197;54.282;10.078;2022-08-27T10:10:35;12.23;;;5.38;;
20073;SDS011;10197;54.282;10.078;2022-08-27T10:13:05;11.55;;;5.18;;
20073;SDS011;10197;54.282;10.078;2022-08-27T10:15:35;14.40;;;5.40;;
20073;SDS011;10197;54.282;10.078;2022-08-27T10:18:06;13.00;;;4.93;;
20073;SDS011;10197;54.282;10.078;2022-08-27T10:20:38;9.57;;;4.40;;
20073;SDS011;10197;54.282;10.078;2022-08-27T10:23:10;8.65;;;4.97;;
20073;SDS011;10197;54.282;10.078;2022-08-27T10:25:45;10.10;;;5.10;;
20073;SDS011;10197;54.282;10.078;2022-08-27T10:28:22;10.48;;;5.57;;
20073;SDS011;10197;54.282;10.078;2022-08-27T10:31:05;9.90;;;5.22;;
20073;SDS011;10197;54.282;10.078;2022-08-27T10:33:41;8.38;;;4.90;;
20073;SDS011;10197;54.282;10.078;2022-08-27T10:36:16;9.65;;;4.93;;
20073;SDS011;10197;54.282;10.078;2022-08-27T10:38:49;8.85;;;4.28;;
20073;SDS011;10197;54.282;10.078;2022-08-27T10:41:21;9.32;;;4.32;;
20073;SDS011;10197;54.282;10.078;2022-08-27T10:44:08;5.50;;;3.90;;
20073;SDS011;10197;54.282;10.078;2022-08-27T10:46:47;8.80;;;3.92;;
20073;SDS011;10197;54.282;10.078;2022-08-27T10:49:25;8.07;;;3.88;;
20073;SDS011;10197;54.282;10.078;2022-08-27T10:51:59;6.40;;;3.88;;
20073;SDS011;10197;54.282;10.078;2022-08-27T10:54:31;7.85;;;3.53;;
20073;SDS011;10197;54.282;10.078;2022-08-27T10:57:03;7.35;;;3.88;;
20073;SDS011;10197;54.282;10.078;2022-08-27T10:59:36;7.82;;;3.75;;
20073;SDS011;10197;54.282;10.078;2022-08-27T11:02:21;5.90;;;3.40;;
20073;SDS011;10197;54.282;10.078;2022-08-27T11:05:01;7.45;;;3.22;;
20073;SDS011;10197;54.282;10.078;2022-08-27T11:08:26;7.47;;;3.47;;
20073;SDS011;10197;54.282;10.078;2022-08-27T11:10:58;6.90;;;3.53;;
20073;SDS011;10197;54.282;10.078;2022-08-27T11:13:29;7.38;;;3.10;;
20073;SDS011;10197;54.282;10.078;2022-08-27T11:15:59;4.82;;;3.00;;
20073;SDS011;10197;54.282;10.078;2022-08-27T11:18:31;8.73;;;4.45;;
20073;SDS011;10197;54.282;10.078;2022-08-27T11:21:04;8.63;;;3.78;;
20073;SDS011;10197;54.282;10.078;2022-08-27T11:23:35;5.68;;;3.35;;
20073;SDS011;10197;54.282;10.078;2022-08-27T11:26:05;8.82;;;3.45;;
20073;SDS011;10197;54.282;10.078;2022-08-27T11:28:34;8.65;;;3.38;;
20073;SDS011;10197;54.282;10.078;2022-08-27T11:31:05;9.20;;;4.18;;
20073;SDS011;10197;54.282;10.078;2022-08-27T11:33:37;7.72;;;2.92;;
20073;SDS011;10197;54.282;10.078;2022-08-27T11:36:22;8.98;;;3.00;;
20073;SDS011;10197;54.282;10.078;2022-08-27T11:39:03;9.40;;;3.60;;
20073;SDS011;10197;54.282;10.078;2022-08-27T11:44:18;9.15;;;3.08;;
20073;SDS011;10197;54.282;10.078;2022-08-27T11:46:48;8.18;;;3.03;;
20073;SDS011;10197;54.282;10.078;2022-08-27T11:49:22;9.25;;;3.17;;
20073;SDS011;10197;54.282;10.078;2022-08-27T11:51:57;10.00;;;3.42;;
20073;SDS011;10197;54.282;10.078;2022-08-27T11:54:26;12.20;;;3.72;;
20073;SDS011;10197;54.282;10.078;2022-08-27T11:56:55;10.05;;;3.53;;
20073;SDS011;10197;54.282;10.078;2022-08-27T11:59:27;7.88;;;2.90;;
20073;SDS011;10197;54.282;10.078;2022-08-27T12:01:57;12.88;;;3.28;;
20073;SDS011;10197;54.282;10.078;2022-08-27T12:04:37;6.80;;;2.22;;
20073;SDS011;10197;54.282;10.078;2022-08-27T12:07:07;7.32;;;3.13;;
20073;SDS011;10197;54.282;10.078;2022-08-27T12:09:53;8.20;;;2.90;;
20073;SDS011;10197;54.282;10.078;2022-08-27T12:12:29;8.88;;;2.85;;
20073;SDS011;10197;54.282;10.078;2022-08-27T12:15:02;9.15;;;2.88;;
20073;SDS011;10197;54.282;10.078;2022-08-27T12:17:33;6.35;;;2.38;;
20073;SDS011;10197;54.282;10.078;2022-08-27T12:20:08;8.15;;;2.50;;
20073;SDS011;10197;54.282;10.078;2022-08-27T12:22:43;7.65;;;2.50;;
20073;SDS011;10197;54.282;10.078;2022-08-27T12:25:35;6.82;;;2.53;;
20073;SDS011;10197;54.282;10.078;2022-08-27T12:28:02;6.30;;;2.38;;
20073;SDS011;10197;54.282;10.078;2022-08-27T12:30:31;8.95;;;2.50;;
20073;SDS011;10197;54.282;10.078;2022-08-27T12:33:03;7.95;;;2.80;;
20073;SDS011;10197;54.282;10.078;2022-08-27T12:35:40;8.95;;;2.97;;
20073;SDS011;10197;54.282;10.078;2022-08-27T12:38:12;7.28;;;2.60;;
20073;SDS011;10197;54.282;10.078;2022-08-27T12:40:45;12.20;;;2.33;;
20073;SDS011;10197;54.282;10.078;2022-08-27T12:43:14;6.50;;;2.35;;
20073;SDS011;10197;54.282;10.078;2022-08-27T12:45:44;7.00;;;2.30;;
20073;SDS011;10197;54.282;10.078;2022-08-27T12:48:13;7.22;;;2.22;;
20073;SDS011;10197;54.282;10.078;2022-08-27T12:50:42;7.95;;;3.22;;
20073;SDS011;10197;54.282;10.078;2022-08-27T12:53:22;7.95;;;2.60;;
20073;SDS011;10197;54.282;10.078;2022-08-27T12:56:02;11.35;;;2.65;;
20073;SDS011;10197;54.282;10.078;2022-08-27T12:58:40;6.43;;;2.45;;
20073;SDS011;10197;54.282;10.078;2022-08-27T13:01:18;7.57;;;2.33;;
20073;SDS011;10197;54.282;10.078;2022-08-27T13:03:51;6.90;;;2.30;;
20073;SDS011;10197;54.282;10.078;2022-08-27T13:06:21;8.48;;;2.28;;
20073;SDS011;10197;54.282;10.078;2022-08-27T13:08:53;7.07;;;1.90;;
20073;SDS011;10197;54.282;10.078;2022-08-27T13:11:23;9.52;;;2.45;;
20073;SDS011;10197;54.282;10.078;2022-08-27T13:13:51;7.45;;;2.30;;
20073;SDS011;10197;54.282;10.078;2022-08-27T13:16:19;5.97;;;2.00;;
20073;SDS011;10197;54.282;10.078;2022-08-27T13:18:47;5.20;;;1.80;;
20073;SDS011;10197;54.282;10.078;2022-08-27T13:21:17;9.32;;;2.30;;
20073;SDS011;10197;54.282;10.078;2022-08-27T13:23:51;10.32;;;2.10;;
20073;SDS011;10197;54.282;10.078;2022-08-27T13:26:22;7.57;;;2.42;;
20073;SDS011;10197;54.282;10.078;2022-08-27T13:28:49;10.20;;;2.60;;
20073;SDS011;10197;54.282;10.078;2022-08-27T13:31:18;9.45;;;2.28;;
20073;SDS011;10197;54.282;10.078;2022-08-27T13:33:45;7.78;;;2.60;;
20073;SDS011;10197;54.282;10.078;2022-08-27T13:36:12;5.82;;;2.13;;
20073;SDS011;10197;54.282;10.078;2022-08-27T13:38:40;7.85;;;2.60;;
20073;SDS011;10197;54.282;10.078;2022-08-27T13:41:09;5.13;;;2.20;;
20073;SDS011;10197;54.282;10.078;2022-08-27T13:43:44;8.45;;;2.78;;
20073;SDS011;10197;54.282;10.078;2022-08-27T13:46:13;4.88;;;2.20;;
20073;SDS011;10197;54.282;10.078;2022-08-27T13:48:45;8.35;;;2.60;;
20073;SDS011;10197;54.282;10.078;2022-08-27T13:51:13;7.63;;;2.00;;
20073;SDS011;10197;54.282;10.078;2022-08-27T13:53:42;6.28;;;2.10;;
20073;SDS011;10197;54.282;10.078;2022-08-27T13:56:31;6.40;;;2.33;;
20073;SDS011;10197;54.282;10.078;2022-08-27T13:59:06;5.80;;;2.47;;
20073;SDS011;10197;54.282;10.078;2022-08-27T14:01:35;5.88;;;2.40;;
20073;SDS011;10197;54.282;10.078;2022-08-27T14:04:02;11.00;;;2.58;;
20073;SDS011;10197;54.282;10.078;2022-08-27T14:06:32;8.38;;;2.50;;
20073;SDS011;10197;54.282;10.078;2022-08-27T14:09:10;8.50;;;2.42;;
20073;SDS011;10197;54.282;10.078;2022-08-27T14:11:43;5.03;;;2.17;;
20073;SDS011;10197;54.282;10.078;2022-08-27T14:14:11;6.70;;;2.20;;
20073;SDS011;10197;54.282;10.078;2022-08-27T14:16:38;4.80;;;1.98;;
20073;SDS011;10197;54.282;10.078;2022-08-27T14:19:09;6.47;;;2.45;;
20073;SDS011;10197;54.282;10.078;2022-08-27T14:21:39;7.10;;;2.17;;
20073;SDS011;10197;54.282;10.078;2022-08-27T14:24:07;7.35;;;2.20;;
20073;SDS011;10197;54.282;10.078;2022-08-27T14:26:35;5.70;;;2.13;;
20073;SDS011;10197;54.282;10.078;2022-08-27T14:29:03;5.28;;;1.92;;
20073;SDS011;10197;54.282;10.078;2022-08-27T14:31:30;4.88;;;2.13;;
20073;SDS011;10197;54.282;10.078;2022-08-27T14:33:57;5.93;;;2.13;;
20073;SDS011;10197;54.282;10.078;2022-08-27T14:36:24;5.25;;;1.92;;
20073;SDS011;10197;54.282;10.078;2022-08-27T14:38:53;5.47;;;2.45;;